createdAt,value
2018-11-26T00:00:35.756Z,32.83
2018-11-26T00:03:11.293Z,32.60
2018-11-26T00:05:43.227Z,34.37
2018-11-26T00:08:14.026Z,33.20
2018-11-26T00:10:54.958Z,33.30
2018-11-26T00:13:26.039Z,35.70
2018-11-26T00:15:57.027Z,35.13
2018-11-26T00:18:27.103Z,35.47
2018-11-26T00:20:57.365Z,34.43
2018-11-26T00:23:28.124Z,33.57
2018-11-26T00:25:58.379Z,35.00
2018-11-26T00:28:28.238Z,34.60
2018-11-26T00:30:58.126Z,35.17
2018-11-26T00:33:29.358Z,36.00
2018-11-26T00:35:59.266Z,35.93
2018-11-26T00:38:29.153Z,36.93
2018-11-26T00:41:00.328Z,37.00
2018-11-26T00:43:30.362Z,38.07
2018-11-26T00:46:01.155Z,38.47
2018-11-26T00:48:32.356Z,36.13
2018-11-26T00:51:08.379Z,37.50
2018-11-26T00:53:38.247Z,37.53
2018-11-26T00:56:08.507Z,39.43
2018-11-26T00:58:39.184Z,39.17
2018-11-26T01:01:09.518Z,41.70
2018-11-26T01:03:39.475Z,39.13
2018-11-26T01:06:11.209Z,42.60
2018-11-26T01:08:43.407Z,43.33
2018-11-26T01:11:13.273Z,43.77
2018-11-26T01:13:44.422Z,43.07
2018-11-26T01:16:14.111Z,44.10
2018-11-26T01:18:45.268Z,44.43
2018-11-26T01:21:16.551Z,47.27
2018-11-26T01:23:46.362Z,50.67
2018-11-26T01:26:16.723Z,49.47
2018-11-26T01:28:47.332Z,50.27
2018-11-26T01:31:19.371Z,49.53
2018-11-26T01:33:50.551Z,50.20
2018-11-26T01:36:21.360Z,49.33
2018-11-26T01:38:51.511Z,51.43
2018-11-26T01:41:22.297Z,51.30
2018-11-26T01:43:52.480Z,52.97
2018-11-26T01:46:22.411Z,53.17
2018-11-26T01:48:56.317Z,56.00
2018-11-26T01:51:27.869Z,55.70
2018-11-26T01:53:59.774Z,53.73
2018-11-26T01:56:30.539Z,56.17
2018-11-26T01:59:01.572Z,56.93
2018-11-26T02:01:33.476Z,58.17
2018-11-26T02:04:04.719Z,55.10
2018-11-26T02:06:34.788Z,56.67
2018-11-26T02:09:06.224Z,59.20
2018-11-26T02:11:41.168Z,58.63
2018-11-26T02:14:11.583Z,59.73
2018-11-26T02:16:44.447Z,61.80
2018-11-26T02:19:14.086Z,61.37
2018-11-26T02:21:45.778Z,61.20
2018-11-26T02:24:16.576Z,62.17
2018-11-26T02:26:46.658Z,59.40
2018-11-26T02:29:16.801Z,63.03
2018-11-26T02:31:46.767Z,62.20
2018-11-26T02:34:16.817Z,62.20
2018-11-26T02:36:48.622Z,60.23
2018-11-26T02:39:20.629Z,62.20
2018-11-26T02:41:51.955Z,60.10
2018-11-26T02:44:21.979Z,59.97
2018-11-26T02:46:51.707Z,61.27
2018-11-26T02:49:21.987Z,60.40
2018-11-26T02:51:52.880Z,60.67
2018-11-26T02:54:22.803Z,61.90
2018-11-26T02:56:53.891Z,60.30
2018-11-26T02:59:27.562Z,64.00
2018-11-26T03:01:59.903Z,62.93
2018-11-26T03:04:32.118Z,66.10
2018-11-26T03:07:03.795Z,61.60
2018-11-26T03:09:33.812Z,66.30
2018-11-26T03:12:04.938Z,64.20
2018-11-26T03:14:35.096Z,60.63
2018-11-26T03:17:05.588Z,62.50
2018-11-26T03:19:35.962Z,61.77
2018-11-26T03:22:06.032Z,61.63
2018-11-26T03:24:36.673Z,62.70
2018-11-26T03:27:07.168Z,64.47
2018-11-26T03:29:36.940Z,64.00
2018-11-26T03:32:07.973Z,64.70
2018-11-26T03:34:38.301Z,63.87
2018-11-26T03:37:08.786Z,65.27
2018-11-26T03:39:38.990Z,65.20
2018-11-26T03:42:09.232Z,68.63
2018-11-26T03:44:39.979Z,64.47
2018-11-26T03:47:10.249Z,62.23
2018-11-26T03:49:40.861Z,64.23
2018-11-26T03:52:11.204Z,66.90
2018-11-26T03:54:41.714Z,66.60
2018-11-26T03:57:12.222Z,65.90
2018-11-26T03:59:42.638Z,70.70
2018-11-26T04:02:13.182Z,70.10
2018-11-26T04:04:43.214Z,67.40
2018-11-26T04:07:13.598Z,67.47
2018-11-26T04:09:44.079Z,71.20
2018-11-26T04:12:13.774Z,69.70
2018-11-26T04:14:44.153Z,70.97
2018-11-26T04:17:14.027Z,69.70
2018-11-26T04:19:44.193Z,69.30
2018-11-26T04:22:14.092Z,70.90
2018-11-26T04:24:45.994Z,72.70
2018-11-26T04:27:16.672Z,68.17
2018-11-26T04:29:46.834Z,70.03
2018-11-26T04:32:17.299Z,70.80
2018-11-26T04:34:47.192Z,70.30
2018-11-26T04:37:17.159Z,69.43
2018-11-26T04:39:54.869Z,71.80
2018-11-26T04:42:24.430Z,67.67
2018-11-26T04:44:55.528Z,68.07
2018-11-26T04:47:26.398Z,68.03
2018-11-26T04:49:58.434Z,66.57
2018-11-26T04:52:29.387Z,68.00
2018-11-26T04:54:59.387Z,63.80
2018-11-26T04:57:29.503Z,67.07
2018-11-26T05:00:01.574Z,63.10
2018-11-26T05:02:33.282Z,65.47
2018-11-26T05:05:04.527Z,65.93
2018-11-26T05:07:34.514Z,68.47
2018-11-26T05:10:07.403Z,63.60
2018-11-26T05:12:37.415Z,63.07
2018-11-26T05:15:09.999Z,64.70
2018-11-26T05:17:41.272Z,65.40
2018-11-26T05:20:13.628Z,65.20
2018-11-26T05:22:45.363Z,61.03
2018-11-26T05:25:17.454Z,63.67
2018-11-26T05:27:49.514Z,62.03
2018-11-26T05:30:20.719Z,60.83
2018-11-26T05:32:52.293Z,58.40
2018-11-26T05:35:23.447Z,61.10
2018-11-26T05:37:53.444Z,63.20
2018-11-26T05:40:23.597Z,59.50
2018-11-26T05:42:54.752Z,60.80
2018-11-26T05:45:26.516Z,62.37
2018-11-26T05:47:58.417Z,62.50
2018-11-26T05:50:28.850Z,61.40
2018-11-26T05:52:58.527Z,58.13
2018-11-26T05:55:29.575Z,59.63
2018-11-26T05:57:59.576Z,57.83
2018-11-26T06:00:32.420Z,59.53
2018-11-26T06:03:03.715Z,56.47
2018-11-26T06:05:35.711Z,59.90
2018-11-26T06:08:07.680Z,57.90
2018-11-26T06:10:39.660Z,57.70
2018-11-26T06:13:13.436Z,57.50
2018-11-26T06:15:45.080Z,57.63
2018-11-26T06:18:14.706Z,54.70
2018-11-26T06:20:46.803Z,57.03
2018-11-26T06:23:18.630Z,54.77
2018-11-26T06:25:49.911Z,54.40
2018-11-26T06:28:20.260Z,55.40
2018-11-26T06:30:50.597Z,52.90
2018-11-26T06:33:20.907Z,54.10
2018-11-26T06:35:51.268Z,54.00
2018-11-26T06:38:24.539Z,52.40
2018-11-26T06:40:55.147Z,53.97
2018-11-26T06:43:24.795Z,50.27
2018-11-26T06:45:55.774Z,51.10
2018-11-26T06:48:29.661Z,51.23
2018-11-26T06:51:01.870Z,51.77
2018-11-26T06:53:32.819Z,49.43
2018-11-26T06:56:02.931Z,51.13
2018-11-26T06:58:33.922Z,53.57
2018-11-26T07:01:03.926Z,51.80
2018-11-26T07:03:33.993Z,51.67
2018-11-26T07:06:03.962Z,54.63
2018-11-26T07:08:35.006Z,53.20
2018-11-26T07:11:04.815Z,51.90
2018-11-26T07:13:34.855Z,52.10
2018-11-26T07:16:06.331Z,51.17
2018-11-26T07:18:36.881Z,53.27
2018-11-26T07:21:10.056Z,51.30
2018-11-26T07:23:39.962Z,49.83
2018-11-26T07:26:10.005Z,51.37
2018-11-26T07:28:40.026Z,49.43
2018-11-26T07:31:11.029Z,49.60
2018-11-26T07:33:41.000Z,46.97
2018-11-26T07:36:13.148Z,46.77
2018-11-26T07:38:45.231Z,47.93
2018-11-26T07:41:14.791Z,50.57
2018-11-26T07:43:45.066Z,51.00
2018-11-26T07:46:14.631Z,48.93
2018-11-26T07:48:48.910Z,49.70
2018-11-26T07:51:19.099Z,48.17
2018-11-26T07:53:50.381Z,46.77
2018-11-26T07:56:21.476Z,49.77
2018-11-26T07:58:52.985Z,49.53
2018-11-26T08:01:24.256Z,48.20
2018-11-26T08:03:54.135Z,49.83
2018-11-26T08:06:24.155Z,48.50
2018-11-26T08:08:55.883Z,48.10
2018-11-26T08:11:28.100Z,48.37
2018-11-26T08:13:59.223Z,50.47
2018-11-26T08:16:29.361Z,48.70
2018-11-26T08:18:59.997Z,49.93
2018-11-26T08:21:30.141Z,47.83
2018-11-26T08:24:00.354Z,44.93
2018-11-26T08:26:30.547Z,46.13
2018-11-26T08:29:01.178Z,49.77
2018-11-26T08:31:33.251Z,46.67
2018-11-26T08:34:05.599Z,48.20
2018-11-26T08:36:40.287Z,46.20
2018-11-26T08:39:17.346Z,43.80
2018-11-26T08:41:53.661Z,44.03
2018-11-26T08:44:28.276Z,45.43
2018-11-26T08:47:03.829Z,45.20
2018-11-26T08:49:35.298Z,42.90
2018-11-26T08:52:05.642Z,43.23
2018-11-26T08:54:35.353Z,44.07
2018-11-26T08:57:06.515Z,43.70
2018-11-26T08:59:37.733Z,39.57
2018-11-26T09:02:10.652Z,37.83
2018-11-26T09:04:45.873Z,39.03
2018-11-26T09:07:17.333Z,40.07
2018-11-26T09:09:50.212Z,37.97
2018-11-26T09:12:20.539Z,39.20
2018-11-26T09:14:51.429Z,36.93
2018-11-26T09:17:21.454Z,35.03
2018-11-26T09:19:52.536Z,33.40
2018-11-26T09:22:25.612Z,32.93
2018-11-26T09:24:56.466Z,34.00
2018-11-26T09:27:26.713Z,33.87
2018-11-26T09:29:56.571Z,33.70
2018-11-26T09:32:27.612Z,33.00
2018-11-26T09:34:57.553Z,32.33
2018-11-26T09:37:28.546Z,31.83
2018-11-26T09:39:58.639Z,31.47
2018-11-26T09:42:29.700Z,31.87
2018-11-26T09:44:59.721Z,27.90
2018-11-26T09:47:32.500Z,29.30
2018-11-26T09:50:03.678Z,32.10
2018-11-26T09:52:34.718Z,30.00
2018-11-26T09:55:04.561Z,28.57
2018-11-26T09:57:34.552Z,30.73
2018-11-26T10:00:11.518Z,31.00
2018-11-26T10:02:42.286Z,28.73
2018-11-26T10:05:14.211Z,29.17
2018-11-26T10:07:45.560Z,29.07
2018-11-26T10:10:17.715Z,29.50
2018-11-26T10:12:48.665Z,27.70
2018-11-26T10:15:20.695Z,30.50
2018-11-26T10:17:50.851Z,26.90
2018-11-26T10:20:20.791Z,27.67
2018-11-26T10:22:52.822Z,26.17
2018-11-26T10:25:24.040Z,29.07
2018-11-26T10:27:55.595Z,26.87
2018-11-26T10:30:26.797Z,28.70
2018-11-26T10:32:56.756Z,27.23
2018-11-26T10:35:26.729Z,26.70
2018-11-26T10:37:58.910Z,24.87
2018-11-26T10:40:30.952Z,27.00
2018-11-26T10:43:01.390Z,27.97
2018-11-26T10:45:31.843Z,27.83
2018-11-26T10:48:02.501Z,28.90
2018-11-26T10:50:32.820Z,28.73
2018-11-26T10:53:02.857Z,28.77
2018-11-26T10:55:34.887Z,26.57
2018-11-26T10:58:04.622Z,28.50
2018-11-26T11:00:40.652Z,26.83
2018-11-26T11:03:11.083Z,29.07
2018-11-26T11:05:41.892Z,29.77
2018-11-26T11:08:11.893Z,28.37
2018-11-26T11:10:43.019Z,28.63
2018-11-26T11:13:12.958Z,25.70
2018-11-26T11:15:44.043Z,27.30
2018-11-26T11:18:14.156Z,26.40
2018-11-26T11:20:45.189Z,26.40
2018-11-26T11:23:14.829Z,27.30
2018-11-26T11:25:49.180Z,29.43
2018-11-26T11:28:21.904Z,27.70
2018-11-26T11:30:53.318Z,29.80
2018-11-26T11:35:56.036Z,27.50
2018-11-26T11:38:28.288Z,28.40
2018-11-26T11:40:57.959Z,23.77
2018-11-26T11:43:28.438Z,27.70
2018-11-26T11:45:58.713Z,26.10
2018-11-26T11:48:31.267Z,25.83
2018-11-26T11:51:04.276Z,26.07
2018-11-26T11:53:36.374Z,27.20
2018-11-26T11:56:07.578Z,28.13
2018-11-26T11:58:40.266Z,27.97
2018-11-26T12:01:11.312Z,25.90
2018-11-26T12:03:42.284Z,25.77
2018-11-26T12:06:12.108Z,24.57
2018-11-26T12:08:43.383Z,26.13
2018-11-26T12:11:14.491Z,25.63
2018-11-26T12:13:44.348Z,25.83
2018-11-26T12:16:14.459Z,24.90
2018-11-26T12:18:45.348Z,24.17
2018-11-26T12:21:15.020Z,25.53
2018-11-26T12:23:46.445Z,25.13
2018-11-26T12:26:18.312Z,25.43
2018-11-26T12:28:50.278Z,23.93
2018-11-26T12:31:20.587Z,24.40
2018-11-26T12:33:51.235Z,26.10
2018-11-26T12:36:23.461Z,25.23
2018-11-26T12:38:53.455Z,30.20
2018-11-26T12:41:23.532Z,26.60
2018-11-26T12:43:54.274Z,25.60
2018-11-26T12:46:25.267Z,26.97
2018-11-26T12:48:56.568Z,26.30
2018-11-26T12:51:27.479Z,25.00
2018-11-26T12:53:59.543Z,25.20
2018-11-26T12:56:30.573Z,25.73
2018-11-26T12:59:03.535Z,25.67
2018-11-26T13:01:37.372Z,24.63
2018-11-26T13:04:09.538Z,26.57
2018-11-26T13:06:39.560Z,26.50
2018-11-26T13:09:09.573Z,27.00
2018-11-26T13:11:40.396Z,24.17
2018-11-26T13:14:14.868Z,26.87
2018-11-26T13:16:44.604Z,27.37
2018-11-26T13:19:14.510Z,27.23
2018-11-26T13:21:45.591Z,25.20
2018-11-26T13:24:15.188Z,27.07
2018-11-26T13:26:46.630Z,24.73
2018-11-26T13:29:17.688Z,25.70
2018-11-26T13:31:47.696Z,28.60
2018-11-26T13:34:17.736Z,25.67
2018-11-26T13:36:48.514Z,25.93
2018-11-26T13:39:20.912Z,27.33
2018-11-26T13:41:52.853Z,28.00
2018-11-26T13:44:23.714Z,27.47
2018-11-26T13:46:53.752Z,26.73
2018-11-26T13:49:23.834Z,27.63
2018-11-26T13:51:55.716Z,26.97
2018-11-26T13:54:26.662Z,28.73
2018-11-26T13:56:56.735Z,27.33
2018-11-26T13:59:27.729Z,26.80
2018-11-26T14:02:01.615Z,27.47
2018-11-26T14:04:31.744Z,26.13
2018-11-26T14:07:02.784Z,24.10
2018-11-26T14:09:34.011Z,26.70
2018-11-26T14:12:05.154Z,27.80
2018-11-26T14:14:34.844Z,25.77
2018-11-26T14:17:05.793Z,26.47
2018-11-26T14:19:36.489Z,25.90
2018-11-26T14:22:06.874Z,28.47
2018-11-26T14:24:37.913Z,26.60
2018-11-26T14:27:08.891Z,27.50
2018-11-26T14:29:38.954Z,27.07
2018-11-26T14:32:10.078Z,28.13
2018-11-26T14:34:40.424Z,26.93
2018-11-26T14:37:10.880Z,28.07
2018-11-26T14:39:41.144Z,28.30
2018-11-26T14:42:12.034Z,29.30
2018-11-26T14:44:42.551Z,28.27
2018-11-26T14:47:14.432Z,29.37
2018-11-26T14:49:43.993Z,29.80
2018-11-26T14:52:14.156Z,31.17
2018-11-26T14:54:44.738Z,30.70
2018-11-26T14:57:14.822Z,30.93
2018-11-26T14:59:45.764Z,32.60
2018-11-26T15:02:15.508Z,30.40
2018-11-26T15:04:47.556Z,29.83
2018-11-26T15:07:18.041Z,30.60
2018-11-26T15:09:49.199Z,29.17
2018-11-26T15:12:19.892Z,30.70
2018-11-26T15:14:50.206Z,29.67
2018-11-26T15:17:21.183Z,32.00
2018-11-26T15:19:51.206Z,28.87
2018-11-26T15:22:21.180Z,30.63
2018-11-26T15:24:52.359Z,31.17
2018-11-26T15:27:27.129Z,32.23
2018-11-26T15:29:57.293Z,31.77
2018-11-26T15:32:28.289Z,30.57
2018-11-26T15:34:59.229Z,33.70
2018-11-26T15:37:31.240Z,32.50
2018-11-26T15:40:01.165Z,32.40
2018-11-26T15:42:30.769Z,32.80
2018-11-26T15:45:06.584Z,30.73
2018-11-26T15:47:36.128Z,31.43
2018-11-26T15:50:07.999Z,31.90
2018-11-26T15:52:37.589Z,33.60
2018-11-26T15:55:09.338Z,34.20
2018-11-26T15:57:41.225Z,34.37
2018-11-26T16:00:14.575Z,37.55
2018-11-26T16:02:45.270Z,34.43
2018-11-26T16:05:21.004Z,34.43
2018-11-26T16:07:59.443Z,36.13
2018-11-26T16:10:29.389Z,34.50
2018-11-26T16:13:00.664Z,33.20
2018-11-26T16:15:36.817Z,35.27
2018-11-26T16:18:09.711Z,35.00
2018-11-26T16:20:41.354Z,33.30
2018-11-26T16:23:14.421Z,34.23
2018-11-26T16:25:47.400Z,34.17
2018-11-26T16:28:21.146Z,33.60
2018-11-26T16:30:52.577Z,33.63
2018-11-26T16:33:24.593Z,33.60
2018-11-26T16:35:54.584Z,33.00
2018-11-26T16:38:24.393Z,31.10
2018-11-26T16:40:55.526Z,30.10
2018-11-26T16:43:27.473Z,31.33
2018-11-26T16:45:57.582Z,33.07
2018-11-26T16:48:29.477Z,30.97
2018-11-26T16:51:01.513Z,33.20
2018-11-26T16:53:31.772Z,31.53
2018-11-26T16:56:02.483Z,30.00
2018-11-26T16:58:32.529Z,30.47
2018-11-26T17:01:03.608Z,31.00
2018-11-26T17:03:34.235Z,29.37
2018-11-26T17:06:04.768Z,31.60
2018-11-26T17:08:35.252Z,29.73
2018-11-26T17:11:05.596Z,32.00
2018-11-26T17:13:36.353Z,31.80
2018-11-26T17:16:07.781Z,29.33
2018-11-26T17:18:36.576Z,30.67
2018-11-26T17:21:07.627Z,29.87
2018-11-26T17:23:38.548Z,31.37
2018-11-26T17:26:12.411Z,29.87
2018-11-26T17:28:42.706Z,31.40
2018-11-26T17:31:13.901Z,31.27
2018-11-26T17:33:45.528Z,32.57
2018-11-26T17:36:15.248Z,32.47
2018-11-26T17:38:45.986Z,31.90
2018-11-26T17:41:15.625Z,33.93
2018-11-26T17:43:46.793Z,31.87
2018-11-26T17:46:18.738Z,34.90
2018-11-26T17:48:50.529Z,36.27
2018-11-26T17:51:22.833Z,32.80
2018-11-26T17:53:53.877Z,34.47
2018-11-26T17:56:23.427Z,31.87
2018-11-26T17:58:57.641Z,34.10
2018-11-26T18:01:34.389Z,35.10
2018-11-26T18:04:04.510Z,35.43
2018-11-26T18:06:34.966Z,32.57
2018-11-26T18:09:07.146Z,33.00
2018-11-26T18:11:38.991Z,32.93
2018-11-26T18:14:11.140Z,34.67
2018-11-26T18:16:42.865Z,37.63
2018-11-26T18:19:13.985Z,33.73
2018-11-26T18:21:44.056Z,35.73
2018-11-26T18:24:15.032Z,34.13
2018-11-26T18:26:45.968Z,37.50
2018-11-26T18:29:15.518Z,34.73
2018-11-26T18:31:45.961Z,37.27
2018-11-26T18:34:15.611Z,37.10
2018-11-26T18:36:47.050Z,34.53
2018-11-26T18:39:17.880Z,36.83
2018-11-26T18:41:47.878Z,34.57
2018-11-26T18:44:20.884Z,35.57
2018-11-26T18:46:53.110Z,36.03
2018-11-26T18:49:24.415Z,34.80
2018-11-26T18:51:54.150Z,34.57
2018-11-26T18:54:25.052Z,36.40
2018-11-26T18:56:56.090Z,34.80
2018-11-26T18:59:26.234Z,36.47
2018-11-26T19:01:58.175Z,33.43
2018-11-26T19:04:30.395Z,32.50
2018-11-26T19:07:01.093Z,35.97
2018-11-26T19:09:32.071Z,34.43
2018-11-26T19:12:04.141Z,33.90
2018-11-26T19:14:33.220Z,35.20
2018-11-26T19:17:04.318Z,34.80
2018-11-26T19:19:41.964Z,33.10
2018-11-26T19:22:10.590Z,33.80
2018-11-26T19:24:42.128Z,32.03
2018-11-26T19:27:15.302Z,33.67
2018-11-26T19:29:46.073Z,34.97
2018-11-26T19:32:15.688Z,34.30
2018-11-26T19:34:46.117Z,37.23
2018-11-26T19:37:22.081Z,35.80
2018-11-26T19:39:51.659Z,34.67
2018-11-26T19:42:23.586Z,35.37
2018-11-26T19:44:55.316Z,39.27
2018-11-26T19:47:27.541Z,38.67
2018-11-26T19:50:02.331Z,37.63
2018-11-26T19:52:29.421Z,37.87
2018-11-26T19:54:59.993Z,38.43
2018-11-26T19:57:30.208Z,38.07
2018-11-26T20:00:00.462Z,41.40
2018-11-26T20:02:30.077Z,39.67
2018-11-26T20:05:02.855Z,38.27
2018-11-26T20:07:33.153Z,39.70
2018-11-26T20:10:03.391Z,41.40
2018-11-26T20:12:34.489Z,42.07
2018-11-26T20:15:05.804Z,42.27
2018-11-26T20:17:35.361Z,42.67
2018-11-26T20:20:06.313Z,39.87
2018-11-26T20:22:36.447Z,36.93
2018-11-26T20:25:14.488Z,40.00
2018-11-26T20:27:44.521Z,38.30
2018-11-26T20:30:18.653Z,40.17
2018-11-26T20:32:48.771Z,39.97
2018-11-26T20:35:18.456Z,40.93
2018-11-26T20:37:50.857Z,40.87
2018-11-26T20:40:21.697Z,39.13
2018-11-26T20:42:53.839Z,40.00
2018-11-26T20:45:24.469Z,41.40
2018-11-26T20:47:56.501Z,40.90
2018-11-26T20:50:28.638Z,40.97
2018-11-26T20:52:58.565Z,40.80
2018-11-26T20:55:30.064Z,40.20
2018-11-26T20:58:00.281Z,41.40
2018-11-26T21:00:30.670Z,41.40
2018-11-26T21:03:07.853Z,40.57
2018-11-26T21:05:37.721Z,39.80
2018-11-26T21:08:07.914Z,42.47
2018-11-26T21:10:38.753Z,42.07
2018-11-26T21:13:10.175Z,40.97
2018-11-26T21:15:42.747Z,39.27
2018-11-26T21:18:14.312Z,38.37
2018-11-26T21:20:48.966Z,37.30
2018-11-26T21:23:21.151Z,35.40
2018-11-26T21:25:51.326Z,37.20
2018-11-26T21:28:21.817Z,39.50
2018-11-26T21:30:52.668Z,38.00
2018-11-26T21:33:23.374Z,35.37
2018-11-26T21:35:53.882Z,36.17
2018-11-26T21:38:24.587Z,33.00
2018-11-26T21:40:54.783Z,33.50
2018-11-26T21:43:24.793Z,36.97
2018-11-26T21:45:58.992Z,33.17
2018-11-26T21:48:30.114Z,33.17
2018-11-26T21:51:01.032Z,31.87
2018-11-26T21:53:32.984Z,30.83
2018-11-26T21:56:02.897Z,30.07
2018-11-26T21:58:35.067Z,30.60
2018-11-26T22:01:09.101Z,29.80
2018-11-26T22:03:40.928Z,28.13
2018-11-26T22:06:13.001Z,25.93
2018-11-26T22:08:44.057Z,25.57
2018-11-26T22:11:14.973Z,24.80
2018-11-26T22:13:46.016Z,25.77
2018-11-26T22:16:15.661Z,23.43
2018-11-26T22:18:52.829Z,23.10
2018-11-26T22:21:23.003Z,22.50
2018-11-26T22:23:53.921Z,21.57
2018-11-26T22:26:24.089Z,24.60
2018-11-26T22:28:55.146Z,21.10
2018-11-26T22:31:26.096Z,21.47
2018-11-26T22:33:57.046Z,22.73
2018-11-26T22:36:27.104Z,22.93
2018-11-26T22:38:59.181Z,22.07
2018-11-26T22:41:31.052Z,22.60
2018-11-26T22:44:02.252Z,23.07
2018-11-26T22:46:33.069Z,21.23
2018-11-26T22:49:03.358Z,19.77
2018-11-26T22:51:34.367Z,20.30
2018-11-26T22:54:05.213Z,20.90
2018-11-26T22:56:36.262Z,22.93
2018-11-26T22:59:09.084Z,22.70
2018-11-26T23:01:40.162Z,22.37
2018-11-26T23:04:11.292Z,21.70
2018-11-26T23:06:42.315Z,23.30
2018-11-26T23:09:12.124Z,24.73
2018-11-26T23:11:43.294Z,22.57
2018-11-26T23:14:14.192Z,22.33
2018-11-26T23:16:44.224Z,20.40
2018-11-26T23:19:15.751Z,24.20
2018-11-26T23:21:45.406Z,23.97
2018-11-26T23:24:15.512Z,22.40
2018-11-26T23:26:46.408Z,22.33
2018-11-26T23:29:16.041Z,22.67
2018-11-26T23:31:48.343Z,23.67
2018-11-26T23:34:19.453Z,22.50
2018-11-26T23:36:49.284Z,25.00
2018-11-26T23:39:19.544Z,22.87
2018-11-26T23:41:51.025Z,23.57
2018-11-26T23:44:22.624Z,24.13
2018-11-26T23:46:54.337Z,24.60
2018-11-26T23:49:24.295Z,25.27
2018-11-26T23:51:56.414Z,25.80
2018-11-26T23:54:28.318Z,24.80
2018-11-26T23:57:00.525Z,24.03
2018-11-26T23:59:31.554Z,24.70
